Atlanta, Idaho
Current Conditions -  °F | °C
As of 5:35 AM on Monday 22 Dec 2014 (Local Time) from KSUN Reporting Station
Overcast Overcast  
Wind Chill: 24°   Ceiling: 7500
Heat Index: 30°   Visibility: 10mi
Dew Point: 28°   Wind: 6mph
Humidity: 93%   Direction: 340°NNW
Pressure: 29.96"   Gusts: NA
Location:  43.8°N, 115.13°W
Report Text: KSUN 221235Z AUTO 34005KT 10SM BKN075 OVC090 M01/M02 A2996 RMK AO2
Loading
Personal Weather Stations






























Interactive Weather Map New forecast layout! Learn more

10-Day Weather Forecast

Advertisements
Track Severe Weather on mobile